sensor_id;sensor_type;location;lat;lon;timestamp;P1;durP1;ratioP1;P2;durP2;ratioP2
1935;SDS011;969;49.892;10.896;2023-10-31T00:01:34;1.83;;;1.63;;
1935;SDS011;969;49.892;10.896;2023-10-31T00:04:00;2.37;;;1.90;;
1935;SDS011;969;49.892;10.896;2023-10-31T00:06:25;2.67;;;2.10;;
1935;SDS011;969;49.892;10.896;2023-10-31T00:08:51;2.57;;;2.00;;
1935;SDS011;969;49.892;10.896;2023-10-31T00:11:17;1.73;;;1.57;;
1935;SDS011;969;49.892;10.896;2023-10-31T00:13:42;2.60;;;2.37;;
1935;SDS011;969;49.892;10.896;2023-10-31T00:16:08;2.43;;;1.70;;
1935;SDS011;969;49.892;10.896;2023-10-31T00:18:33;1.70;;;1.50;;
1935;SDS011;969;49.892;10.896;2023-10-31T00:20:59;2.57;;;2.00;;
1935;SDS011;969;49.892;10.896;2023-10-31T00:23:25;1.80;;;1.40;;
1935;SDS011;969;49.892;10.896;2023-10-31T00:25:51;1.90;;;1.73;;
1935;SDS011;969;49.892;10.896;2023-10-31T00:28:16;3.20;;;2.00;;
1935;SDS011;969;49.892;10.896;2023-10-31T00:30:42;1.90;;;1.80;;
1935;SDS011;969;49.892;10.896;2023-10-31T00:33:07;2.00;;;1.80;;
1935;SDS011;969;49.892;10.896;2023-10-31T00:35:33;2.20;;;1.73;;
1935;SDS011;969;49.892;10.896;2023-10-31T00:37:58;2.30;;;1.93;;
1935;SDS011;969;49.892;10.896;2023-10-31T00:40:24;2.97;;;2.07;;
1935;SDS011;969;49.892;10.896;2023-10-31T00:42:50;2.83;;;2.13;;
1935;SDS011;969;49.892;10.896;2023-10-31T00:45:15;2.20;;;1.70;;
1935;SDS011;969;49.892;10.896;2023-10-31T00:47:41;2.00;;;1.50;;
1935;SDS011;969;49.892;10.896;2023-10-31T00:50:07;2.43;;;1.93;;
1935;SDS011;969;49.892;10.896;2023-10-31T00:52:33;2.40;;;1.67;;
1935;SDS011;969;49.892;10.896;2023-10-31T00:54:59;1.93;;;1.80;;
1935;SDS011;969;49.892;10.896;2023-10-31T00:57:25;1.57;;;1.37;;
1935;SDS011;969;49.892;10.896;2023-10-31T00:59:50;2.43;;;2.03;;
1935;SDS011;969;49.892;10.896;2023-10-31T01:02:16;2.67;;;1.80;;
1935;SDS011;969;49.892;10.896;2023-10-31T01:04:41;1.87;;;1.73;;
1935;SDS011;969;49.892;10.896;2023-10-31T01:07:07;2.00;;;1.73;;
1935;SDS011;969;49.892;10.896;2023-10-31T01:09:36;1.57;;;1.47;;
1935;SDS011;969;49.892;10.896;2023-10-31T01:12:02;1.70;;;1.53;;
1935;SDS011;969;49.892;10.896;2023-10-31T01:14:28;2.40;;;1.83;;
1935;SDS011;969;49.892;10.896;2023-10-31T01:16:53;2.27;;;1.90;;
1935;SDS011;969;49.892;10.896;2023-10-31T01:19:19;1.80;;;1.60;;
1935;SDS011;969;49.892;10.896;2023-10-31T01:21:44;2.20;;;2.00;;
1935;SDS011;969;49.892;10.896;2023-10-31T01:24:10;2.33;;;1.90;;
1935;SDS011;969;49.892;10.896;2023-10-31T01:26:35;2.00;;;1.80;;
1935;SDS011;969;49.892;10.896;2023-10-31T01:29:01;1.90;;;1.70;;
1935;SDS011;969;49.892;10.896;2023-10-31T01:31:27;2.93;;;1.90;;
1935;SDS011;969;49.892;10.896;2023-10-31T01:33:53;1.60;;;1.47;;
1935;SDS011;969;49.892;10.896;2023-10-31T01:36:18;1.77;;;1.67;;
1935;SDS011;969;49.892;10.896;2023-10-31T01:38:44;3.00;;;2.07;;
1935;SDS011;969;49.892;10.896;2023-10-31T01:41:11;2.47;;;1.60;;
1935;SDS011;969;49.892;10.896;2023-10-31T01:43:37;1.73;;;1.57;;
1935;SDS011;969;49.892;10.896;2023-10-31T01:46:03;2.17;;;1.83;;
1935;SDS011;969;49.892;10.896;2023-10-31T01:48:30;1.43;;;1.30;;
1935;SDS011;969;49.892;10.896;2023-10-31T01:50:57;1.97;;;1.73;;
1935;SDS011;969;49.892;10.896;2023-10-31T01:53:27;1.87;;;1.73;;
1935;SDS011;969;49.892;10.896;2023-10-31T01:55:54;1.80;;;1.53;;
1935;SDS011;969;49.892;10.896;2023-10-31T01:58:21;1.90;;;1.50;;
1935;SDS011;969;49.892;10.896;2023-10-31T02:00:53;2.77;;;1.33;;
1935;SDS011;969;49.892;10.896;2023-10-31T02:03:20;1.53;;;1.40;;
1935;SDS011;969;49.892;10.896;2023-10-31T02:05:45;2.23;;;1.37;;
1935;SDS011;969;49.892;10.896;2023-10-31T02:08:11;2.20;;;1.60;;
1935;SDS011;969;49.892;10.896;2023-10-31T02:10:37;2.20;;;1.70;;
1935;SDS011;969;49.892;10.896;2023-10-31T02:13:15;2.03;;;1.70;;
1935;SDS011;969;49.892;10.896;2023-10-31T02:15:42;2.43;;;1.53;;
1935;SDS011;969;49.892;10.896;2023-10-31T02:18:08;1.87;;;1.30;;
1935;SDS011;969;49.892;10.896;2023-10-31T02:20:33;1.60;;;1.50;;
1935;SDS011;969;49.892;10.896;2023-10-31T02:22:59;1.70;;;1.40;;
1935;SDS011;969;49.892;10.896;2023-10-31T02:25:25;2.33;;;1.50;;
1935;SDS011;969;49.892;10.896;2023-10-31T02:27:51;1.60;;;1.50;;
1935;SDS011;969;49.892;10.896;2023-10-31T02:30:16;2.20;;;1.60;;
1935;SDS011;969;49.892;10.896;2023-10-31T02:32:42;2.57;;;1.80;;
1935;SDS011;969;49.892;10.896;2023-10-31T02:35:08;1.77;;;1.67;;
1935;SDS011;969;49.892;10.896;2023-10-31T02:37:34;2.00;;;1.60;;
1935;SDS011;969;49.892;10.896;2023-10-31T02:40:00;2.10;;;1.90;;
1935;SDS011;969;49.892;10.896;2023-10-31T02:42:26;2.07;;;1.73;;
1935;SDS011;969;49.892;10.896;2023-10-31T02:44:52;1.90;;;1.70;;
1935;SDS011;969;49.892;10.896;2023-10-31T02:47:18;1.97;;;1.50;;
1935;SDS011;969;49.892;10.896;2023-10-31T02:49:44;1.77;;;1.47;;
1935;SDS011;969;49.892;10.896;2023-10-31T02:52:09;2.23;;;1.80;;
1935;SDS011;969;49.892;10.896;2023-10-31T02:54:35;1.73;;;1.60;;
1935;SDS011;969;49.892;10.896;2023-10-31T02:57:01;1.47;;;1.37;;
1935;SDS011;969;49.892;10.896;2023-10-31T02:59:27;2.00;;;1.80;;
1935;SDS011;969;49.892;10.896;2023-10-31T03:01:53;1.90;;;1.70;;
1935;SDS011;969;49.892;10.896;2023-10-31T03:04:20;3.60;;;1.97;;
1935;SDS011;969;49.892;10.896;2023-10-31T03:06:46;1.73;;;1.63;;
1935;SDS011;969;49.892;10.896;2023-10-31T03:09:11;4.27;;;1.60;;
1935;SDS011;969;49.892;10.896;2023-10-31T03:11:37;2.80;;;1.90;;
1935;SDS011;969;49.892;10.896;2023-10-31T03:14:03;1.77;;;1.50;;
1935;SDS011;969;49.892;10.896;2023-10-31T03:16:28;3.93;;;1.73;;
1935;SDS011;969;49.892;10.896;2023-10-31T03:18:54;3.00;;;1.60;;
1935;SDS011;969;49.892;10.896;2023-10-31T03:21:19;2.07;;;1.53;;
1935;SDS011;969;49.892;10.896;2023-10-31T03:23:49;1.83;;;1.60;;
1935;SDS011;969;49.892;10.896;2023-10-31T03:26:15;1.50;;;1.30;;
1935;SDS011;969;49.892;10.896;2023-10-31T03:28:42;1.40;;;1.30;;
1935;SDS011;969;49.892;10.896;2023-10-31T03:31:09;1.90;;;1.70;;
1935;SDS011;969;49.892;10.896;2023-10-31T03:33:35;2.03;;;1.57;;
1935;SDS011;969;49.892;10.896;2023-10-31T03:36:01;1.70;;;1.40;;
1935;SDS011;969;49.892;10.896;2023-10-31T03:38:27;1.73;;;1.60;;
1935;SDS011;969;49.892;10.896;2023-10-31T03:40:53;1.50;;;1.40;;
1935;SDS011;969;49.892;10.896;2023-10-31T03:43:19;1.73;;;1.53;;
1935;SDS011;969;49.892;10.896;2023-10-31T03:45:45;2.00;;;1.50;;
1935;SDS011;969;49.892;10.896;2023-10-31T03:48:12;1.70;;;1.30;;
1935;SDS011;969;49.892;10.896;2023-10-31T03:50:38;1.60;;;1.40;;
1935;SDS011;969;49.892;10.896;2023-10-31T03:53:03;1.77;;;1.57;;
1935;SDS011;969;49.892;10.896;2023-10-31T03:55:29;1.67;;;1.57;;
1935;SDS011;969;49.892;10.896;2023-10-31T03:57:57;1.87;;;1.67;;
1935;SDS011;969;49.892;10.896;2023-10-31T04:00:23;1.60;;;1.43;;
1935;SDS011;969;49.892;10.896;2023-10-31T04:02:49;1.50;;;1.40;;
1935;SDS011;969;49.892;10.896;2023-10-31T04:05:14;2.00;;;1.80;;
1935;SDS011;969;49.892;10.896;2023-10-31T04:07:40;1.63;;;1.53;;
1935;SDS011;969;49.892;10.896;2023-10-31T04:10:06;1.63;;;1.50;;
1935;SDS011;969;49.892;10.896;2023-10-31T04:12:32;2.13;;;1.77;;
1935;SDS011;969;49.892;10.896;2023-10-31T04:14:58;2.23;;;1.30;;
1935;SDS011;969;49.892;10.896;2023-10-31T04:17:24;1.90;;;1.33;;
1935;SDS011;969;49.892;10.896;2023-10-31T04:19:50;2.07;;;1.60;;
1935;SDS011;969;49.892;10.896;2023-10-31T04:22:15;1.90;;;1.40;;
1935;SDS011;969;49.892;10.896;2023-10-31T04:24:41;2.13;;;1.60;;
1935;SDS011;969;49.892;10.896;2023-10-31T04:27:06;1.57;;;1.30;;
1935;SDS011;969;49.892;10.896;2023-10-31T04:29:32;2.07;;;1.30;;
1935;SDS011;969;49.892;10.896;2023-10-31T04:31:58;1.40;;;1.30;;
1935;SDS011;969;49.892;10.896;2023-10-31T04:34:23;2.17;;;1.47;;
1935;SDS011;969;49.892;10.896;2023-10-31T04:36:49;2.10;;;1.67;;
1935;SDS011;969;49.892;10.896;2023-10-31T04:39:14;1.80;;;1.40;;
1935;SDS011;969;49.892;10.896;2023-10-31T04:41:40;2.10;;;1.60;;
1935;SDS011;969;49.892;10.896;2023-10-31T04:44:06;1.70;;;1.40;;
1935;SDS011;969;49.892;10.896;2023-10-31T04:46:31;1.50;;;1.40;;
1935;SDS011;969;49.892;10.896;2023-10-31T04:48:57;1.70;;;1.50;;
1935;SDS011;969;49.892;10.896;2023-10-31T04:51:23;1.30;;;1.10;;
1935;SDS011;969;49.892;10.896;2023-10-31T04:53:48;1.73;;;1.50;;
1935;SDS011;969;49.892;10.896;2023-10-31T04:56:14;1.40;;;1.13;;
1935;SDS011;969;49.892;10.896;2023-10-31T04:58:44;1.53;;;1.40;;
1935;SDS011;969;49.892;10.896;2023-10-31T05:01:10;1.70;;;1.37;;
1935;SDS011;969;49.892;10.896;2023-10-31T05:03:37;2.20;;;1.40;;
1935;SDS011;969;49.892;10.896;2023-10-31T05:06:03;1.70;;;1.40;;
1935;SDS011;969;49.892;10.896;2023-10-31T05:08:29;1.67;;;1.40;;
1935;SDS011;969;49.892;10.896;2023-10-31T05:10:55;2.20;;;1.30;;
1935;SDS011;969;49.892;10.896;2023-10-31T05:13:22;1.73;;;1.43;;
1935;SDS011;969;49.892;10.896;2023-10-31T05:15:47;2.17;;;1.20;;
1935;SDS011;969;49.892;10.896;2023-10-31T05:18:13;1.60;;;1.50;;
1935;SDS011;969;49.892;10.896;2023-10-31T05:20:38;1.83;;;1.57;;
1935;SDS011;969;49.892;10.896;2023-10-31T05:23:04;1.53;;;1.37;;
1935;SDS011;969;49.892;10.896;2023-10-31T05:25:30;1.47;;;1.33;;
1935;SDS011;969;49.892;10.896;2023-10-31T05:27:56;1.70;;;1.43;;
1935;SDS011;969;49.892;10.896;2023-10-31T05:30:21;1.97;;;1.77;;
1935;SDS011;969;49.892;10.896;2023-10-31T05:32:47;1.50;;;1.40;;
1935;SDS011;969;49.892;10.896;2023-10-31T05:35:14;1.90;;;1.30;;
1935;SDS011;969;49.892;10.896;2023-10-31T05:37:40;1.50;;;1.40;;
1935;SDS011;969;49.892;10.896;2023-10-31T05:40:05;1.63;;;1.33;;
1935;SDS011;969;49.892;10.896;2023-10-31T05:42:32;1.50;;;1.40;;
1935;SDS011;969;49.892;10.896;2023-10-31T05:44:57;1.53;;;1.30;;
1935;SDS011;969;49.892;10.896;2023-10-31T05:47:23;1.73;;;1.57;;
1935;SDS011;969;49.892;10.896;2023-10-31T05:49:48;1.83;;;1.63;;
1935;SDS011;969;49.892;10.896;2023-10-31T05:52:14;1.37;;;1.27;;
1935;SDS011;969;49.892;10.896;2023-10-31T05:54:40;1.70;;;1.47;;
1935;SDS011;969;49.892;10.896;2023-10-31T05:57:05;1.60;;;1.50;;
1935;SDS011;969;49.892;10.896;2023-10-31T05:59:31;1.73;;;1.33;;
1935;SDS011;969;49.892;10.896;2023-10-31T06:01:57;1.60;;;1.10;;
1935;SDS011;969;49.892;10.896;2023-10-31T06:04:23;1.60;;;1.50;;
1935;SDS011;969;49.892;10.896;2023-10-31T06:06:50;1.57;;;1.20;;
1935;SDS011;969;49.892;10.896;2023-10-31T06:09:15;1.20;;;1.10;;
1935;SDS011;969;49.892;10.896;2023-10-31T06:11:42;1.70;;;1.47;;
1935;SDS011;969;49.892;10.896;2023-10-31T06:14:08;1.30;;;1.10;;
1935;SDS011;969;49.892;10.896;2023-10-31T06:16:43;1.20;;;1.10;;
1935;SDS011;969;49.892;10.896;2023-10-31T06:19:09;1.40;;;1.20;;
1935;SDS011;969;49.892;10.896;2023-10-31T06:21:35;2.00;;;1.30;;
1935;SDS011;969;49.892;10.896;2023-10-31T06:24:01;1.97;;;1.40;;
1935;SDS011;969;49.892;10.896;2023-10-31T06:26:30;1.30;;;1.10;;
1935;SDS011;969;49.892;10.896;2023-10-31T06:28:55;2.30;;;1.43;;
1935;SDS011;969;49.892;10.896;2023-10-31T06:31:21;1.50;;;1.23;;
1935;SDS011;969;49.892;10.896;2023-10-31T06:33:47;1.60;;;1.40;;
1935;SDS011;969;49.892;10.896;2023-10-31T06:36:12;2.17;;;1.40;;
1935;SDS011;969;49.892;10.896;2023-10-31T06:38:38;1.73;;;1.60;;
1935;SDS011;969;49.892;10.896;2023-10-31T06:41:04;2.13;;;1.77;;
1935;SDS011;969;49.892;10.896;2023-10-31T06:43:29;1.80;;;1.70;;
1935;SDS011;969;49.892;10.896;2023-10-31T06:45:55;1.40;;;1.10;;
1935;SDS011;969;49.892;10.896;2023-10-31T06:48:22;1.67;;;1.50;;
1935;SDS011;969;49.892;10.896;2023-10-31T06:50:47;1.20;;;1.10;;
1935;SDS011;969;49.892;10.896;2023-10-31T06:53:13;1.60;;;1.40;;
1935;SDS011;969;49.892;10.896;2023-10-31T06:55:39;1.37;;;1.20;;
1935;SDS011;969;49.892;10.896;2023-10-31T06:58:05;1.47;;;1.20;;
1935;SDS011;969;49.892;10.896;2023-10-31T07:00:30;2.00;;;1.23;;
1935;SDS011;969;49.892;10.896;2023-10-31T07:02:56;1.30;;;1.20;;
1935;SDS011;969;49.892;10.896;2023-10-31T07:05:23;1.40;;;1.00;;
1935;SDS011;969;49.892;10.896;2023-10-31T07:07:49;1.50;;;1.40;;
1935;SDS011;969;49.892;10.896;2023-10-31T07:10:15;1.30;;;1.00;;
1935;SDS011;969;49.892;10.896;2023-10-31T07:12:41;1.60;;;1.10;;
1935;SDS011;969;49.892;10.896;2023-10-31T07:15:06;1.70;;;1.30;;
1935;SDS011;969;49.892;10.896;2023-10-31T07:17:32;1.30;;;1.00;;
1935;SDS011;969;49.892;10.896;2023-10-31T07:19:58;2.20;;;1.63;;
1935;SDS011;969;49.892;10.896;2023-10-31T07:22:23;1.30;;;1.20;;
1935;SDS011;969;49.892;10.896;2023-10-31T07:24:50;1.63;;;1.27;;
1935;SDS011;969;49.892;10.896;2023-10-31T07:27:16;1.40;;;1.10;;
1935;SDS011;969;49.892;10.896;2023-10-31T07:29:42;1.20;;;1.10;;
1935;SDS011;969;49.892;10.896;2023-10-31T07:32:08;1.40;;;1.30;;
1935;SDS011;969;49.892;10.896;2023-10-31T07:34:34;1.57;;;1.47;;
1935;SDS011;969;49.892;10.896;2023-10-31T07:37:00;1.57;;;1.47;;
1935;SDS011;969;49.892;10.896;2023-10-31T07:39:25;1.33;;;1.23;;
1935;SDS011;969;49.892;10.896;2023-10-31T07:41:51;2.13;;;1.17;;
1935;SDS011;969;49.892;10.896;2023-10-31T07:44:17;1.30;;;1.20;;
1935;SDS011;969;49.892;10.896;2023-10-31T07:46:42;1.87;;;1.20;;
1935;SDS011;969;49.892;10.896;2023-10-31T07:49:08;1.50;;;1.10;;
1935;SDS011;969;49.892;10.896;2023-10-31T07:51:34;2.33;;;1.40;;
1935;SDS011;969;49.892;10.896;2023-10-31T07:53:59;1.10;;;1.00;;
1935;SDS011;969;49.892;10.896;2023-10-31T07:56:25;1.43;;;1.33;;
1935;SDS011;969;49.892;10.896;2023-10-31T07:58:51;1.27;;;1.17;;
1935;SDS011;969;49.892;10.896;2023-10-31T08:01:17;1.40;;;1.27;;
1935;SDS011;969;49.892;10.896;2023-10-31T08:03:43;1.43;;;1.23;;
1935;SDS011;969;49.892;10.896;2023-10-31T08:06:10;1.90;;;1.47;;
1935;SDS011;969;49.892;10.896;2023-10-31T08:08:36;1.40;;;1.27;;
1935;SDS011;969;49.892;10.896;2023-10-31T08:11:02;1.27;;;1.13;;
1935;SDS011;969;49.892;10.896;2023-10-31T08:13:28;1.67;;;1.37;;
1935;SDS011;969;49.892;10.896;2023-10-31T08:15:54;1.60;;;1.10;;
1935;SDS011;969;49.892;10.896;2023-10-31T08:18:21;1.33;;;1.13;;
1935;SDS011;969;49.892;10.896;2023-10-31T08:20:48;1.30;;;1.10;;
1935;SDS011;969;49.892;10.896;2023-10-31T08:23:15;1.70;;;1.60;;
1935;SDS011;969;49.892;10.896;2023-10-31T08:25:42;2.13;;;1.20;;
1935;SDS011;969;49.892;10.896;2023-10-31T08:28:08;1.30;;;1.10;;
1935;SDS011;969;49.892;10.896;2023-10-31T08:30:34;2.30;;;1.33;;
1935;SDS011;969;49.892;10.896;2023-10-31T08:33:00;1.30;;;1.00;;
1935;SDS011;969;49.892;10.896;2023-10-31T08:35:26;1.33;;;1.20;;
1935;SDS011;969;49.892;10.896;2023-10-31T08:37:51;1.30;;;1.13;;
1935;SDS011;969;49.892;10.896;2023-10-31T08:40:17;1.40;;;1.10;;
1935;SDS011;969;49.892;10.896;2023-10-31T08:42:43;1.40;;;1.20;;
1935;SDS011;969;49.892;10.896;2023-10-31T08:45:09;1.20;;;0.90;;
1935;SDS011;969;49.892;10.896;2023-10-31T08:47:34;2.03;;;1.10;;
1935;SDS011;969;49.892;10.896;2023-10-31T08:50:00;1.30;;;1.20;;
1935;SDS011;969;49.892;10.896;2023-10-31T08:52:26;1.43;;;1.33;;
1935;SDS011;969;49.892;10.896;2023-10-31T08:54:51;1.10;;;1.00;;
1935;SDS011;969;49.892;10.896;2023-10-31T08:57:17;2.00;;;1.30;;
1935;SDS011;969;49.892;10.896;2023-10-31T08:59:42;1.30;;;1.10;;
1935;SDS011;969;49.892;10.896;2023-10-31T09:02:08;1.70;;;1.33;;
1935;SDS011;969;49.892;10.896;2023-10-31T09:04:34;1.43;;;1.33;;
1935;SDS011;969;49.892;10.896;2023-10-31T09:07:00;1.13;;;1.03;;
1935;SDS011;969;49.892;10.896;2023-10-31T09:09:25;1.90;;;1.10;;
1935;SDS011;969;49.892;10.896;2023-10-31T09:11:51;1.10;;;1.00;;
1935;SDS011;969;49.892;10.896;2023-10-31T09:14:17;2.03;;;1.03;;
1935;SDS011;969;49.892;10.896;2023-10-31T09:16:43;1.20;;;1.00;;
1935;SDS011;969;49.892;10.896;2023-10-31T09:19:08;1.30;;;1.00;;
1935;SDS011;969;49.892;10.896;2023-10-31T09:21:34;1.33;;;1.00;;
1935;SDS011;969;49.892;10.896;2023-10-31T09:24:00;1.20;;;1.10;;
1935;SDS011;969;49.892;10.896;2023-10-31T09:26:26;2.23;;;1.13;;
1935;SDS011;969;49.892;10.896;2023-10-31T09:28:51;1.93;;;1.43;;
1935;SDS011;969;49.892;10.896;2023-10-31T09:31:17;1.33;;;1.20;;
1935;SDS011;969;49.892;10.896;2023-10-31T09:33:43;1.97;;;1.40;;
1935;SDS011;969;49.892;10.896;2023-10-31T09:36:09;1.27;;;1.00;;
1935;SDS011;969;49.892;10.896;2023-10-31T09:38:35;2.17;;;1.43;;
1935;SDS011;969;49.892;10.896;2023-10-31T09:41:01;1.40;;;1.20;;
1935;SDS011;969;49.892;10.896;2023-10-31T09:43:26;1.40;;;1.00;;
1935;SDS011;969;49.892;10.896;2023-10-31T09:45:52;1.20;;;1.10;;
1935;SDS011;969;49.892;10.896;2023-10-31T09:48:19;1.13;;;1.00;;
1935;SDS011;969;49.892;10.896;2023-10-31T09:50:45;1.20;;;1.07;;
1935;SDS011;969;49.892;10.896;2023-10-31T09:53:12;1.20;;;1.07;;
1935;SDS011;969;49.892;10.896;2023-10-31T09:55:41;1.40;;;1.17;;
1935;SDS011;969;49.892;10.896;2023-10-31T09:58:07;1.40;;;1.10;;
1935;SDS011;969;49.892;10.896;2023-10-31T10:00:33;1.53;;;1.43;;
1935;SDS011;969;49.892;10.896;2023-10-31T10:03:01;1.30;;;1.20;;
1935;SDS011;969;49.892;10.896;2023-10-31T10:05:28;1.20;;;0.97;;
1935;SDS011;969;49.892;10.896;2023-10-31T10:07:56;1.27;;;1.00;;
1935;SDS011;969;49.892;10.896;2023-10-31T10:10:23;1.50;;;1.17;;
1935;SDS011;969;49.892;10.896;2023-10-31T10:12:51;1.20;;;0.90;;
1935;SDS011;969;49.892;10.896;2023-10-31T10:15:17;1.20;;;1.10;;
1935;SDS011;969;49.892;10.896;2023-10-31T10:17:48;1.90;;;0.97;;
1935;SDS011;969;49.892;10.896;2023-10-31T10:20:15;1.30;;;1.20;;
1935;SDS011;969;49.892;10.896;2023-10-31T10:22:41;1.33;;;1.23;;
1935;SDS011;969;49.892;10.896;2023-10-31T10:25:08;1.47;;;1.10;;
1935;SDS011;969;49.892;10.896;2023-10-31T10:27:38;1.30;;;1.10;;
1935;SDS011;969;49.892;10.896;2023-10-31T10:30:03;1.77;;;1.07;;
1935;SDS011;969;49.892;10.896;2023-10-31T10:32:30;1.77;;;1.27;;
1935;SDS011;969;49.892;10.896;2023-10-31T10:34:56;1.23;;;0.90;;
1935;SDS011;969;49.892;10.896;2023-10-31T10:37:22;1.53;;;1.00;;
1935;SDS011;969;49.892;10.896;2023-10-31T10:39:51;1.20;;;1.00;;
1935;SDS011;969;49.892;10.896;2023-10-31T10:42:21;1.50;;;1.00;;
1935;SDS011;969;49.892;10.896;2023-10-31T10:45:01;1.10;;;1.00;;
1935;SDS011;969;49.892;10.896;2023-10-31T10:47:29;1.20;;;1.03;;
1935;SDS011;969;49.892;10.896;2023-10-31T10:49:58;2.23;;;1.10;;
1935;SDS011;969;49.892;10.896;2023-10-31T10:52:30;1.87;;;1.20;;
1935;SDS011;969;49.892;10.896;2023-10-31T10:55:13;1.00;;;0.83;;
1935;SDS011;969;49.892;10.896;2023-10-31T11:00:19;1.03;;;0.93;;
1935;SDS011;969;49.892;10.896;2023-10-31T11:02:49;1.20;;;1.00;;
1935;SDS011;969;49.892;10.896;2023-10-31T11:05:17;1.27;;;1.10;;
1935;SDS011;969;49.892;10.896;2023-10-31T11:07:43;2.60;;;1.20;;
1935;SDS011;969;49.892;10.896;2023-10-31T11:10:10;1.27;;;0.80;;
1935;SDS011;969;49.892;10.896;2023-10-31T11:12:36;1.50;;;1.10;;
1935;SDS011;969;49.892;10.896;2023-10-31T11:15:03;1.10;;;1.00;;
1935;SDS011;969;49.892;10.896;2023-10-31T11:17:33;1.33;;;1.03;;
1935;SDS011;969;49.892;10.896;2023-10-31T11:20:01;1.10;;;0.90;;
1935;SDS011;969;49.892;10.896;2023-10-31T11:22:41;1.23;;;1.07;;
1935;SDS011;969;49.892;10.896;2023-10-31T11:25:12;1.43;;;1.00;;
1935;SDS011;969;49.892;10.896;2023-10-31T11:27:39;1.13;;;0.90;;
1935;SDS011;969;49.892;10.896;2023-10-31T11:30:07;1.37;;;1.10;;
1935;SDS011;969;49.892;10.896;2023-10-31T11:32:48;1.40;;;1.00;;
1935;SDS011;969;49.892;10.896;2023-10-31T11:35:15;1.07;;;0.97;;
1935;SDS011;969;49.892;10.896;2023-10-31T11:37:42;1.43;;;0.90;;
1935;SDS011;969;49.892;10.896;2023-10-31T11:42:50;2.50;;;1.10;;
1935;SDS011;969;49.892;10.896;2023-10-31T11:45:27;1.10;;;0.90;;
1935;SDS011;969;49.892;10.896;2023-10-31T11:48:07;1.10;;;0.87;;
1935;SDS011;969;49.892;10.896;2023-10-31T11:50:35;1.40;;;1.20;;
1935;SDS011;969;49.892;10.896;2023-10-31T11:53:05;1.30;;;1.03;;
1935;SDS011;969;49.892;10.896;2023-10-31T11:55:46;1.70;;;1.10;;
1935;SDS011;969;49.892;10.896;2023-10-31T11:58:21;2.50;;;1.23;;
1935;SDS011;969;49.892;10.896;2023-10-31T12:00:49;1.20;;;1.10;;
1935;SDS011;969;49.892;10.896;2023-10-31T12:03:16;1.10;;;0.97;;
1935;SDS011;969;49.892;10.896;2023-10-31T12:05:56;1.07;;;0.90;;
1935;SDS011;969;49.892;10.896;2023-10-31T12:08:25;1.50;;;1.30;;
1935;SDS011;969;49.892;10.896;2023-10-31T12:10:51;1.50;;;1.13;;
1935;SDS011;969;49.892;10.896;2023-10-31T12:13:17;0.97;;;0.87;;
1935;SDS011;969;49.892;10.896;2023-10-31T12:15:52;1.40;;;1.03;;
1935;SDS011;969;49.892;10.896;2023-10-31T12:18:18;1.60;;;1.10;;
1935;SDS011;969;49.892;10.896;2023-10-31T12:20:47;1.30;;;0.90;;
1935;SDS011;969;49.892;10.896;2023-10-31T12:23:14;1.10;;;1.00;;
1935;SDS011;969;49.892;10.896;2023-10-31T12:25:49;1.20;;;1.10;;
1935;SDS011;969;49.892;10.896;2023-10-31T12:28:19;1.50;;;1.10;;
1935;SDS011;969;49.892;10.896;2023-10-31T12:30:46;1.40;;;1.20;;
1935;SDS011;969;49.892;10.896;2023-10-31T12:33:12;1.20;;;1.00;;
1935;SDS011;969;49.892;10.896;2023-10-31T12:35:38;1.27;;;1.10;;
1935;SDS011;969;49.892;10.896;2023-10-31T12:38:04;1.37;;;1.10;;
1935;SDS011;969;49.892;10.896;2023-10-31T12:40:32;1.47;;;0.90;;
1935;SDS011;969;49.892;10.896;2023-10-31T12:42:59;1.10;;;0.87;;
1935;SDS011;969;49.892;10.896;2023-10-31T12:45:26;1.90;;;1.07;;
1935;SDS011;969;49.892;10.896;2023-10-31T12:48:01;1.30;;;1.10;;
1935;SDS011;969;49.892;10.896;2023-10-31T12:50:27;1.00;;;0.80;;
1935;SDS011;969;49.892;10.896;2023-10-31T12:52:54;1.00;;;0.90;;
1935;SDS011;969;49.892;10.896;2023-10-31T12:55:23;1.80;;;1.00;;
1935;SDS011;969;49.892;10.896;2023-10-31T12:57:50;1.10;;;1.00;;
1935;SDS011;969;49.892;10.896;2023-10-31T13:00:17;1.43;;;1.10;;
1935;SDS011;969;49.892;10.896;2023-10-31T13:02:49;1.30;;;1.10;;
1935;SDS011;969;49.892;10.896;2023-10-31T13:05:16;1.00;;;0.90;;
1935;SDS011;969;49.892;10.896;2023-10-31T13:07:48;1.23;;;1.03;;
1935;SDS011;969;49.892;10.896;2023-10-31T13:10:16;1.20;;;1.00;;
1935;SDS011;969;49.892;10.896;2023-10-31T13:12:45;1.60;;;1.20;;
1935;SDS011;969;49.892;10.896;2023-10-31T13:15:14;1.00;;;0.80;;
1935;SDS011;969;49.892;10.896;2023-10-31T13:17:41;1.10;;;0.90;;
1935;SDS011;969;49.892;10.896;2023-10-31T13:20:09;1.30;;;1.10;;
1935;SDS011;969;49.892;10.896;2023-10-31T13:22:38;1.90;;;1.00;;
1935;SDS011;969;49.892;10.896;2023-10-31T13:25:05;1.30;;;1.07;;
1935;SDS011;969;49.892;10.896;2023-10-31T13:27:34;1.10;;;0.90;;
1935;SDS011;969;49.892;10.896;2023-10-31T13:30:01;1.03;;;0.93;;
1935;SDS011;969;49.892;10.896;2023-10-31T13:32:27;1.00;;;0.90;;
1935;SDS011;969;49.892;10.896;2023-10-31T13:34:53;1.43;;;0.80;;
1935;SDS011;969;49.892;10.896;2023-10-31T13:37:18;1.50;;;1.10;;
1935;SDS011;969;49.892;10.896;2023-10-31T13:39:44;1.10;;;0.90;;
1935;SDS011;969;49.892;10.896;2023-10-31T13:42:10;1.10;;;0.83;;
1935;SDS011;969;49.892;10.896;2023-10-31T13:44:35;0.90;;;0.70;;
1935;SDS011;969;49.892;10.896;2023-10-31T13:47:02;1.03;;;0.90;;
1935;SDS011;969;49.892;10.896;2023-10-31T13:49:28;1.20;;;1.00;;
1935;SDS011;969;49.892;10.896;2023-10-31T13:51:54;1.93;;;0.80;;
1935;SDS011;969;49.892;10.896;2023-10-31T13:54:19;2.13;;;1.00;;
1935;SDS011;969;49.892;10.896;2023-10-31T13:56:45;1.10;;;0.93;;
1935;SDS011;969;49.892;10.896;2023-10-31T13:59:12;1.20;;;1.00;;
1935;SDS011;969;49.892;10.896;2023-10-31T14:01:37;1.37;;;0.90;;
1935;SDS011;969;49.892;10.896;2023-10-31T14:04:03;1.17;;;1.07;;
1935;SDS011;969;49.892;10.896;2023-10-31T14:06:29;1.70;;;1.00;;
1935;SDS011;969;49.892;10.896;2023-10-31T14:08:57;1.20;;;0.97;;
1935;SDS011;969;49.892;10.896;2023-10-31T14:11:23;1.20;;;0.90;;
1935;SDS011;969;49.892;10.896;2023-10-31T14:13:49;1.20;;;0.90;;
1935;SDS011;969;49.892;10.896;2023-10-31T14:16:15;1.07;;;0.80;;
1935;SDS011;969;49.892;10.896;2023-10-31T14:18:41;1.37;;;1.10;;
1935;SDS011;969;49.892;10.896;2023-10-31T14:21:08;1.10;;;0.90;;
1935;SDS011;969;49.892;10.896;2023-10-31T14:23:33;2.50;;;1.00;;
1935;SDS011;969;49.892;10.896;2023-10-31T14:25:59;1.20;;;1.00;;
1935;SDS011;969;49.892;10.896;2023-10-31T14:28:25;1.10;;;0.90;;
1935;SDS011;969;49.892;10.896;2023-10-31T14:30:51;1.17;;;0.83;;
1935;SDS011;969;49.892;10.896;2023-10-31T14:33:19;1.10;;;1.00;;
1935;SDS011;969;49.892;10.896;2023-10-31T14:35:45;1.20;;;1.00;;
1935;SDS011;969;49.892;10.896;2023-10-31T14:38:11;2.10;;;1.40;;
1935;SDS011;969;49.892;10.896;2023-10-31T14:40:36;1.47;;;1.03;;
1935;SDS011;969;49.892;10.896;2023-10-31T14:43:02;1.30;;;0.90;;
1935;SDS011;969;49.892;10.896;2023-10-31T14:45:28;1.10;;;0.97;;
1935;SDS011;969;49.892;10.896;2023-10-31T14:47:53;1.20;;;1.00;;
1935;SDS011;969;49.892;10.896;2023-10-31T14:50:20;1.20;;;1.00;;
1935;SDS011;969;49.892;10.896;2023-10-31T14:52:48;1.30;;;1.03;;
1935;SDS011;969;49.892;10.896;2023-10-31T14:55:14;3.70;;;1.00;;
1935;SDS011;969;49.892;10.896;2023-10-31T14:57:40;1.10;;;1.00;;
1935;SDS011;969;49.892;10.896;2023-10-31T15:00:06;1.03;;;0.93;;
1935;SDS011;969;49.892;10.896;2023-10-31T15:02:36;4.80;;;1.20;;
1935;SDS011;969;49.892;10.896;2023-10-31T15:05:02;1.87;;;1.20;;
1935;SDS011;969;49.892;10.896;2023-10-31T15:07:28;1.73;;;1.00;;
1935;SDS011;969;49.892;10.896;2023-10-31T15:09:54;3.20;;;1.07;;
1935;SDS011;969;49.892;10.896;2023-10-31T15:12:19;3.20;;;1.00;;
1935;SDS011;969;49.892;10.896;2023-10-31T15:14:45;1.40;;;1.00;;
1935;SDS011;969;49.892;10.896;2023-10-31T15:17:11;1.63;;;1.10;;